Main page
METAR-TAF:

METAR-TAF

Airports :

Ouagadougou, Burkina Faso

Ouagadougou Airport

latitude: 12-21N, longitude: 001-31W, elevation: 316 m

Current weather observation

The report was made 1 hour and 5 minutes ago, at 05:00 UTC
Wind 4 kt from the West
Temperature 24°C
Humidity 69%
Pressure 1011 hPa
Visibility 10 km or more
no clouds below 1500 m and no cumulonimbus

METAR: DFFD 240500Z 27004KT CAVOK 24/18 Q1011 NOSIG

Time: 06:05 (06:05 UTC)

Forecast

The report was made 1 hour and 5 minutes ago, at 05:00 UTC
Forecast valid from 24 at 06 UTC to 25 at 12 UTC
Wind 8 kt from variable directions
Visibility: 8000 m
Temporary
from 24 at 06 UTC to 24 at 10 UTC
Visibility: 3500 m
haze
Temporary
from 24 at 17 UTC to 24 at 20 UTC
Visibility: 4000 m
haze

TAF: DFFD 240500Z 2406/2512 VRB08KT 8000 NSC TEMPO 2406/2410 3500 HZ TEMPO 2417/2420 4000 HZ

Weather observations and forecasts of more than 4000 airports (METAR and TAF reports).

The available stations are represented by yellow and red dots on the map.

Hover mouse over dot to see the name of the station.

Then click to see weather observations and forecasts.

To change the map : click on the green buttons with a black cross to zoom in, on the green button with a dash to zoom out, or on the green arrows for adjacent maps.


METAR-TAF: